Time;durP1;ratioP1;P1;durP2;ratioP2;P2;SDS_P1;SDS_P2;PMS_P1;PMS_P2;Temp;Humidity;BMP_temperature;BMP_pressure;BME280_temperature;BME280_humidity;BME280_pressure;Samples;Min_cycle;Max_cycle;Signal;HPM_P1;HPM_P2
2023/05/20 00:01:57;;;;;;;8.60;7.60;;;;;;;;;;4979911;28;20026;-59
2023/05/20 00:04:22;;;;;;;8.05;7.25;;;;;;;;;;4978452;28;20038;-59
2023/05/20 00:06:48;;;;;;;10.32;8.88;;;;;;;;;;4977392;28;20042;-58
2023/05/20 00:09:13;;;;;;;9.25;7.53;;;;;;;;;;4978250;28;20040;-59
2023/05/20 00:11:39;;;;;;;8.38;7.38;;;;;;;;;;4979246;28;20393;-58
2023/05/20 00:14:05;;;;;;;9.20;7.78;;;;;;;;;;4980343;28;20121;-59
2023/05/20 00:16:30;;;;;;;8.60;6.95;;;;;;;;;;4996904;28;20049;-59
2023/05/20 00:18:56;;;;;;;8.75;7.18;;;;;;;;;;4979397;28;20434;-58
2023/05/20 00:21:21;;;;;;;9.02;7.57;;;;;;;;;;4979078;28;20045;-59
2023/05/20 00:23:47;;;;;;;8.95;7.78;;;;;;;;;;4980451;28;20153;-59
2023/05/20 00:26:12;;;;;;;9.18;8.25;;;;;;;;;;4978888;28;20458;-60
2023/05/20 00:28:39;;;;;;;8.63;7.38;;;;;;;;;;4978664;28;20044;-59
2023/05/20 00:31:05;;;;;;;8.45;7.53;;;;;;;;;;4982246;28;20045;-58
2023/05/20 00:33:30;;;;;;;8.55;7.65;;;;;;;;;;4978854;28;20101;-58
2023/05/20 00:35:55;;;;;;;10.80;9.20;;;;;;;;;;4977121;28;20030;-58
2023/05/20 00:38:21;;;;;;;9.85;8.43;;;;;;;;;;4977947;28;20524;-58
2023/05/20 00:40:46;;;;;;;11.93;9.57;;;;;;;;;;4977838;28;20406;-59
2023/05/20 00:43:12;;;;;;;8.88;7.90;;;;;;;;;;4980972;28;20046;-59
2023/05/20 00:45:38;;;;;;;11.80;9.23;;;;;;;;;;4978587;28;20173;-58
2023/05/20 00:48:04;;;;;;;10.30;8.75;;;;;;;;;;4981000;28;20042;-59
2023/05/20 00:50:30;;;;;;;10.20;9.20;;;;;;;;;;4994431;28;20489;-58
2023/05/20 00:52:55;;;;;;;9.82;8.27;;;;;;;;;;4978578;28;20034;-58
2023/05/20 00:55:21;;;;;;;12.35;9.70;;;;;;;;;;4978361;28;20037;-59
2023/05/20 00:57:47;;;;;;;11.43;10.23;;;;;;;;;;4978513;28;20046;-59
2023/05/20 01:00:13;;;;;;;12.77;8.93;;;;;;;;;;4981602;28;20033;-58
2023/05/20 01:02:38;;;;;;;12.43;9.55;;;;;;;;;;4979558;28;20035;-59
2023/05/20 01:05:04;;;;;;;12.05;9.38;;;;;;;;;;4978438;28;20438;-59
2023/05/20 01:07:30;;;;;;;11.25;8.70;;;;;;;;;;4979229;28;20351;-58
2023/05/20 01:09:55;;;;;;;13.23;9.88;;;;;;;;;;4978361;28;20062;-59
2023/05/20 01:12:42;;;;;;;12.13;9.48;;;;;;;;;;4978660;28;20431;-58
2023/05/20 01:15:09;;;;;;;17.30;11.70;;;;;;;;;;4978095;28;20031;-59
2023/05/20 01:17:37;;;;;;;13.27;10.25;;;;;;;;;;4980227;28;20686;-59
2023/05/20 01:20:04;;;;;;;10.98;9.75;;;;;;;;;;4991985;28;20332;-59
2023/05/20 01:22:29;;;;;;;14.18;10.43;;;;;;;;;;4979823;28;20035;-58
2023/05/20 01:24:55;;;;;;;13.70;10.25;;;;;;;;;;4982450;28;20081;-58
2023/05/20 01:27:21;;;;;;;13.18;10.63;;;;;;;;;;4993581;28;20039;-58
2023/05/20 01:29:49;;;;;;;10.38;9.38;;;;;;;;;;4978901;28;20430;-60
2023/05/20 01:32:30;;;;;;;11.98;10.18;;;;;;;;;;4975707;28;20050;-58
2023/05/20 01:34:56;;;;;;;12.15;10.18;;;;;;;;;;4978610;28;20034;-60
2023/05/20 01:37:22;;;;;;;14.85;11.10;;;;;;;;;;4980520;28;20037;-59
2023/05/20 01:39:48;;;;;;;12.77;11.43;;;;;;;;;;4979366;28;20038;-59
2023/05/20 01:42:14;;;;;;;10.65;9.48;;;;;;;;;;4976872;28;20489;-58
2023/05/20 01:44:40;;;;;;;11.95;10.75;;;;;;;;;;4977514;28;20141;-59
2023/05/20 01:47:06;;;;;;;13.52;11.50;;;;;;;;;;4968089;28;20121;-58
2023/05/20 01:49:31;;;;;;;13.10;11.60;;;;;;;;;;4977982;28;20473;-59
2023/05/20 01:51:57;;;;;;;12.93;10.68;;;;;;;;;;4977538;28;20043;-58
2023/05/20 01:54:22;;;;;;;12.20;10.60;;;;;;;;;;4977559;28;20034;-59
2023/05/20 01:56:48;;;;;;;13.43;9.77;;;;;;;;;;4977572;28;20522;-58
2023/05/20 01:59:14;;;;;;;12.07;9.90;;;;;;;;;;4981664;28;20042;-58
2023/05/20 02:01:40;;;;;;;12.35;9.95;;;;;;;;;;4992799;28;20038;-58
2023/05/20 02:04:05;;;;;;;12.60;10.60;;;;;;;;;;4992275;28;20041;-60
2023/05/20 02:06:31;;;;;;;16.40;11.85;;;;;;;;;;4983956;28;20178;-60
2023/05/20 02:08:56;;;;;;;12.07;10.77;;;;;;;;;;4969490;28;20395;-60
2023/05/20 02:11:22;;;;;;;12.00;9.85;;;;;;;;;;4977407;28;20106;-59
2023/05/20 02:13:48;;;;;;;12.55;10.45;;;;;;;;;;4975532;28;20106;-58
2023/05/20 02:16:14;;;;;;;13.90;10.10;;;;;;;;;;4979072;28;20134;-59
2023/05/20 02:18:41;;;;;;;14.57;10.20;;;;;;;;;;4976981;28;20487;-58
2023/05/20 02:21:06;;;;;;;15.50;11.88;;;;;;;;;;4974212;28;20354;-59
2023/05/20 02:23:32;;;;;;;14.23;11.30;;;;;;;;;;4974834;28;20093;-59
2023/05/20 02:25:57;;;;;;;13.25;10.98;;;;;;;;;;4971409;28;21352;-60
2023/05/20 02:28:23;;;;;;;15.13;12.45;;;;;;;;;;4983693;28;20453;-59
2023/05/20 02:30:51;;;;;;;14.98;11.20;;;;;;;;;;4980435;28;20104;-59
2023/05/20 02:33:17;;;;;;;13.35;11.50;;;;;;;;;;4979052;28;20030;-59
2023/05/20 02:35:42;;;;;;;14.57;11.43;;;;;;;;;;4980106;28;20057;-59
2023/05/20 02:38:09;;;;;;;13.27;10.75;;;;;;;;;;4988466;28;20177;-61
2023/05/20 02:40:35;;;;;;;11.30;9.85;;;;;;;;;;4964842;28;20535;-59
2023/05/20 02:43:01;;;;;;;15.15;11.80;;;;;;;;;;4979433;28;20128;-59
2023/05/20 02:45:27;;;;;;;13.05;11.10;;;;;;;;;;4994432;28;20092;-59
2023/05/20 02:47:52;;;;;;;13.63;11.45;;;;;;;;;;4972201;28;20524;-59
2023/05/20 02:50:18;;;;;;;15.95;11.95;;;;;;;;;;4984432;28;20109;-58
2023/05/20 02:52:44;;;;;;;14.05;10.93;;;;;;;;;;4981048;28;20444;-58
2023/05/20 02:55:10;;;;;;;16.02;11.55;;;;;;;;;;4995686;28;20039;-59
2023/05/20 02:57:39;;;;;;;12.45;10.82;;;;;;;;;;4979209;28;20022;-58
2023/05/20 03:00:09;;;;;;;15.95;10.45;;;;;;;;;;4980211;28;20050;-59
2023/05/20 03:02:35;;;;;;;13.10;10.32;;;;;;;;;;4954576;28;20078;-59
2023/05/20 03:05:01;;;;;;;17.25;10.57;;;;;;;;;;4979560;28;20453;-58
2023/05/20 03:07:26;;;;;;;13.30;10.05;;;;;;;;;;4980505;28;20469;-59
2023/05/20 03:09:52;;;;;;;13.15;10.73;;;;;;;;;;4983258;28;20053;-58
2023/05/20 03:12:18;;;;;;;12.18;9.50;;;;;;;;;;4994702;28;20454;-60
2023/05/20 03:14:43;;;;;;;12.77;10.02;;;;;;;;;;4984231;28;20414;-58
2023/05/20 03:17:09;;;;;;;15.02;10.77;;;;;;;;;;4980334;28;20110;-58
2023/05/20 03:19:35;;;;;;;15.85;11.43;;;;;;;;;;4986431;28;20054;-58
2023/05/20 03:22:02;;;;;;;16.35;10.85;;;;;;;;;;4977393;28;20042;-58
2023/05/20 03:24:28;;;;;;;15.13;10.32;;;;;;;;;;4980517;28;20089;-57
2023/05/20 03:26:54;;;;;;;16.40;11.27;;;;;;;;;;4970060;28;20042;-58
2023/05/20 03:29:22;;;;;;;19.02;11.98;;;;;;;;;;4993614;28;20061;-58
2023/05/20 03:31:47;;;;;;;15.10;10.68;;;;;;;;;;4996443;28;20086;-58
2023/05/20 03:34:13;;;;;;;12.63;10.40;;;;;;;;;;4985065;28;20541;-58
2023/05/20 03:36:39;;;;;;;13.38;10.63;;;;;;;;;;4994598;28;20549;-58
2023/05/20 03:39:04;;;;;;;16.60;12.55;;;;;;;;;;4980750;28;20117;-60
2023/05/20 03:41:31;;;;;;;15.70;11.80;;;;;;;;;;4983386;28;20436;-59
2023/05/20 03:43:57;;;;;;;16.92;13.18;;;;;;;;;;4979727;28;20038;-59
2023/05/20 03:46:24;;;;;;;15.20;12.65;;;;;;;;;;4986579;28;20070;-58
2023/05/20 03:48:49;;;;;;;16.45;12.98;;;;;;;;;;4981586;28;20097;-57
2023/05/20 03:51:15;;;;;;;14.93;12.18;;;;;;;;;;4994503;28;20367;-59
2023/05/20 03:53:41;;;;;;;16.15;12.27;;;;;;;;;;4961112;28;20166;-58
2023/05/20 03:56:06;;;;;;;16.60;12.50;;;;;;;;;;4982908;28;20026;-59
2023/05/20 03:58:32;;;;;;;13.82;11.77;;;;;;;;;;4983421;28;20517;-60
2023/05/20 04:00:58;;;;;;;15.52;11.50;;;;;;;;;;4983966;28;20537;-61
2023/05/20 04:03:23;;;;;;;17.13;12.85;;;;;;;;;;4980556;28;20502;-58
2023/05/20 04:05:49;;;;;;;14.40;12.05;;;;;;;;;;4984054;28;20126;-59
2023/05/20 04:08:18;;;;;;;16.85;12.20;;;;;;;;;;4983360;28;20164;-59
2023/05/20 04:10:44;;;;;;;19.98;14.15;;;;;;;;;;4994999;28;20129;-59
2023/05/20 04:13:10;;;;;;;17.63;13.57;;;;;;;;;;4980955;28;20112;-60
2023/05/20 04:15:37;;;;;;;18.27;14.57;;;;;;;;;;4978172;28;20085;-58
2023/05/20 04:18:02;;;;;;;18.88;13.68;;;;;;;;;;4977202;28;20560;-59
2023/05/20 04:20:28;;;;;;;15.15;12.70;;;;;;;;;;4983228;28;20046;-58
2023/05/20 04:22:56;;;;;;;16.35;12.52;;;;;;;;;;4984510;28;20485;-58
2023/05/20 04:25:21;;;;;;;19.63;14.93;;;;;;;;;;4978962;28;20119;-58
2023/05/20 04:27:48;;;;;;;22.45;13.25;;;;;;;;;;4981217;28;20039;-58
2023/05/20 04:30:15;;;;;;;19.27;14.02;;;;;;;;;;4961558;28;20034;-58
2023/05/20 04:32:41;;;;;;;20.73;15.23;;;;;;;;;;4979639;28;20030;-58
2023/05/20 04:35:10;;;;;;;20.42;15.63;;;;;;;;;;4978762;28;20034;-58
2023/05/20 04:37:37;;;;;;;23.38;16.77;;;;;;;;;;4986115;28;20520;-58
2023/05/20 04:40:05;;;;;;;20.20;16.15;;;;;;;;;;4967256;28;20489;-58
2023/05/20 04:42:32;;;;;;;19.77;14.57;;;;;;;;;;4979165;28;20031;-59
2023/05/20 04:45:00;;;;;;;21.27;16.25;;;;;;;;;;4994952;28;20489;-58
2023/05/20 04:47:28;;;;;;;21.17;15.40;;;;;;;;;;4978439;28;20339;-59
2023/05/20 04:49:56;;;;;;;18.98;16.02;;;;;;;;;;4982384;28;20447;-59
2023/05/20 04:52:21;;;;;;;23.42;15.88;;;;;;;;;;4993785;28;20405;-58
2023/05/20 04:54:49;;;;;;;18.48;14.60;;;;;;;;;;4977874;28;20050;-59
2023/05/20 04:57:19;;;;;;;23.13;17.58;;;;;;;;;;4983089;28;20052;-58
2023/05/20 04:59:46;;;;;;;19.65;15.43;;;;;;;;;;4990998;28;20042;-59
2023/05/20 05:02:11;;;;;;;24.73;16.38;;;;;;;;;;4978140;28;20952;-58
2023/05/20 05:04:36;;;;;;;24.42;17.38;;;;;;;;;;4977391;28;20122;-58
2023/05/20 05:07:02;;;;;;;18.58;15.68;;;;;;;;;;4979968;28;20039;-59
2023/05/20 05:09:27;;;;;;;20.55;16.77;;;;;;;;;;4977500;28;20767;-59
2023/05/20 05:11:53;;;;;;;19.38;15.65;;;;;;;;;;4968534;28;20453;-58
2023/05/20 05:14:18;;;;;;;19.25;15.10;;;;;;;;;;4984605;28;20050;-59
2023/05/20 05:16:44;;;;;;;18.60;15.10;;;;;;;;;;4977503;28;20033;-58
2023/05/20 05:19:09;;;;;;;23.42;16.83;;;;;;;;;;4983229;28;20058;-58
2023/05/20 05:21:37;;;;;;;21.95;15.65;;;;;;;;;;4978268;28;20100;-59
2023/05/20 05:24:03;;;;;;;22.92;16.38;;;;;;;;;;4979219;28;20042;-59
2023/05/20 05:26:28;;;;;;;26.80;19.00;;;;;;;;;;4975317;28;20066;-58
2023/05/20 05:28:54;;;;;;;25.85;18.95;;;;;;;;;;4968052;28;20601;-59
2023/05/20 05:31:20;;;;;;;27.08;20.50;;;;;;;;;;4979518;28;20089;-57
2023/05/20 05:33:45;;;;;;;26.55;17.50;;;;;;;;;;4981676;28;20362;-58
2023/05/20 05:36:10;;;;;;;21.52;16.45;;;;;;;;;;4982971;28;20037;-59
2023/05/20 05:38:36;;;;;;;23.77;18.48;;;;;;;;;;4978989;28;20486;-59
2023/05/20 05:41:02;;;;;;;26.75;17.90;;;;;;;;;;4976650;28;20038;-59
2023/05/20 05:43:28;;;;;;;24.00;18.10;;;;;;;;;;4981994;28;20056;-58
2023/05/20 05:45:53;;;;;;;29.98;19.58;;;;;;;;;;4976338;28;20034;-58
2023/05/20 05:48:20;;;;;;;26.83;18.70;;;;;;;;;;4982452;28;20506;-59
2023/05/20 05:50:46;;;;;;;24.83;16.85;;;;;;;;;;4978816;28;20042;-60
2023/05/20 05:53:13;;;;;;;25.38;17.23;;;;;;;;;;4978159;28;20098;-58
2023/05/20 05:55:41;;;;;;;26.75;18.77;;;;;;;;;;4979262;28;20587;-59
2023/05/20 05:58:07;;;;;;;27.58;17.20;;;;;;;;;;4993754;28;20054;-59
2023/05/20 06:00:32;;;;;;;22.63;16.92;;;;;;;;;;4985103;28;20142;-58
2023/05/20 06:02:58;;;;;;;25.20;18.52;;;;;;;;;;4983626;28;20034;-59
2023/05/20 06:05:30;;;;;;;26.10;17.95;;;;;;;;;;4995542;28;20572;-58
2023/05/20 06:07:56;;;;;;;25.50;18.42;;;;;;;;;;4964605;28;20027;-59
2023/05/20 06:10:22;;;;;;;27.30;18.40;;;;;;;;;;4979693;28;20051;-57
2023/05/20 06:12:48;;;;;;;23.10;18.02;;;;;;;;;;4986387;28;20045;-59
2023/05/20 06:15:13;;;;;;;24.38;17.58;;;;;;;;;;4986709;28;20417;-58
2023/05/20 06:17:38;;;;;;;19.45;16.63;;;;;;;;;;4981077;28;20140;-59
2023/05/20 06:20:04;;;;;;;24.08;16.90;;;;;;;;;;4995695;28;20039;-56
2023/05/20 06:22:30;;;;;;;22.05;15.82;;;;;;;;;;4982036;28;20032;-58
2023/05/20 06:24:59;;;;;;;22.98;16.73;;;;;;;;;;4980705;28;20053;-59
2023/05/20 06:27:25;;;;;;;20.73;17.38;;;;;;;;;;4986196;28;20434;-59
2023/05/20 06:29:50;;;;;;;22.27;17.95;;;;;;;;;;4980127;28;20044;-59
2023/05/20 06:32:16;;;;;;;24.35;18.20;;;;;;;;;;4985662;28;20158;-58
2023/05/20 06:34:41;;;;;;;20.15;15.73;;;;;;;;;;4996664;28;20346;-58
2023/05/20 06:37:07;;;;;;;21.83;15.85;;;;;;;;;;4982144;28;20037;-58
2023/05/20 06:39:32;;;;;;;21.98;17.90;;;;;;;;;;4985118;28;20216;-59
2023/05/20 06:41:58;;;;;;;20.50;16.95;;;;;;;;;;4982606;28;20045;-58
2023/05/20 06:44:28;;;;;;;21.45;16.58;;;;;;;;;;4985352;28;20031;-59
2023/05/20 06:47:13;;;;;;;20.35;16.20;;;;;;;;;;4966886;28;20049;-60
2023/05/20 06:49:39;;;;;;;21.40;16.52;;;;;;;;;;4981196;28;20045;-60
2023/05/20 06:52:05;;;;;;;19.83;15.57;;;;;;;;;;4977312;28;20078;-58
2023/05/20 06:54:32;;;;;;;28.38;16.88;;;;;;;;;;4979605;28;20045;-59
2023/05/20 06:56:58;;;;;;;17.42;14.50;;;;;;;;;;4994109;28;20136;-58
2023/05/20 06:59:24;;;;;;;21.08;16.17;;;;;;;;;;4993952;28;20038;-59
2023/05/20 07:01:49;;;;;;;18.35;15.38;;;;;;;;;;4981122;28;20046;-59
2023/05/20 07:04:15;;;;;;;19.42;16.15;;;;;;;;;;4979141;28;20414;-58
2023/05/20 07:06:41;;;;;;;20.95;15.70;;;;;;;;;;4983888;28;20045;-59
2023/05/20 07:09:07;;;;;;;17.45;13.80;;;;;;;;;;4995168;28;20193;-59
2023/05/20 07:11:33;;;;;;;16.13;14.27;;;;;;;;;;4982599;28;20058;-59
2023/05/20 07:13:59;;;;;;;18.55;14.23;;;;;;;;;;4984010;28;20065;-59
2023/05/20 07:16:25;;;;;;;15.20;13.27;;;;;;;;;;4985951;28;20048;-58
2023/05/20 07:18:53;;;;;;;18.35;13.60;;;;;;;;;;4977972;28;20533;-58
2023/05/20 07:21:19;;;;;;;17.08;12.77;;;;;;;;;;4980170;28;20144;-58
2023/05/20 07:24:00;;;;;;;15.90;12.27;;;;;;;;;;4982229;28;20073;-59
2023/05/20 07:26:26;;;;;;;15.88;12.40;;;;;;;;;;4983533;28;20047;-59
2023/05/20 07:28:51;;;;;;;15.95;12.85;;;;;;;;;;4979869;28;20040;-60
2023/05/20 07:31:17;;;;;;;17.63;13.02;;;;;;;;;;4968539;28;20088;-59
2023/05/20 07:33:43;;;;;;;21.17;16.08;;;;;;;;;;4979294;28;20031;-60
2023/05/20 07:36:08;;;;;;;17.98;14.77;;;;;;;;;;4970091;28;20409;-60
2023/05/20 07:38:34;;;;;;;19.30;14.27;;;;;;;;;;4983202;28;20501;-59
2023/05/20 07:41:05;;;;;;;14.45;12.65;;;;;;;;;;4995846;28;20038;-60
2023/05/20 07:43:31;;;;;;;15.65;13.30;;;;;;;;;;4985446;28;20031;-59
2023/05/20 07:45:57;;;;;;;15.63;13.65;;;;;;;;;;4986425;28;20044;-59
2023/05/20 07:48:22;;;;;;;20.48;14.75;;;;;;;;;;4977735;28;20405;-60
2023/05/20 07:50:48;;;;;;;16.65;14.68;;;;;;;;;;4980179;28;20543;-59
2023/05/20 07:53:15;;;;;;;16.95;14.52;;;;;;;;;;4985210;28;20033;-60
2023/05/20 07:55:40;;;;;;;19.30;14.95;;;;;;;;;;4979980;28;20085;-60
2023/05/20 07:58:06;;;;;;;17.20;14.50;;;;;;;;;;4987178;28;20655;-61
2023/05/20 08:00:33;;;;;;;15.50;12.98;;;;;;;;;;4966105;28;20041;-61
2023/05/20 08:03:02;;;;;;;18.05;12.48;;;;;;;;;;4994306;28;20038;-60
2023/05/20 08:05:36;;;;;;;17.77;14.03;;;;;;;;;;4969452;28;20044;-61
2023/05/20 08:08:02;;;;;;;19.50;14.45;;;;;;;;;;4980087;28;20116;-66
2023/05/20 08:10:33;;;;;;;16.70;13.32;;;;;;;;;;4984750;28;20408;-60
2023/05/20 08:12:58;;;;;;;16.23;13.00;;;;;;;;;;4982694;28;20046;-60
2023/05/20 08:15:24;;;;;;;18.40;15.52;;;;;;;;;;4981683;28;20163;-60
2023/05/20 08:17:49;;;;;;;19.20;15.05;;;;;;;;;;4977133;28;20096;-61
2023/05/20 08:20:15;;;;;;;16.92;13.52;;;;;;;;;;4979353;28;20497;-60
2023/05/20 08:22:41;;;;;;;15.20;13.57;;;;;;;;;;4984239;28;20034;-60
2023/05/20 08:25:08;;;;;;;16.35;13.95;;;;;;;;;;4981539;28;20037;-60
2023/05/20 08:27:34;;;;;;;17.45;13.70;;;;;;;;;;4995653;28;20041;-61
2023/05/20 08:30:00;;;;;;;16.88;14.00;;;;;;;;;;4982095;28;20039;-60
2023/05/20 08:32:26;;;;;;;15.70;13.48;;;;;;;;;;4979879;28;20123;-60
2023/05/20 08:34:51;;;;;;;15.88;14.13;;;;;;;;;;4996603;28;20030;-61
2023/05/20 08:37:16;;;;;;;17.13;13.98;;;;;;;;;;4981739;28;20039;-61
2023/05/20 08:39:43;;;;;;;19.00;14.57;;;;;;;;;;4983604;28;20038;-61
2023/05/20 08:42:12;;;;;;;13.63;12.00;;;;;;;;;;4992253;28;20093;-60
2023/05/20 08:44:37;;;;;;;16.77;12.68;;;;;;;;;;4993951;28;20406;-60
2023/05/20 08:47:03;;;;;;;18.90;14.55;;;;;;;;;;4977025;28;20038;-62
2023/05/20 08:49:30;;;;;;;15.25;13.63;;;;;;;;;;4977710;28;20470;-62
2023/05/20 08:51:56;;;;;;;13.25;10.05;;;;;;;;;;4980166;28;20026;-62
2023/05/20 08:54:22;;;;;;;14.63;11.90;;;;;;;;;;4978140;28;20128;-61
2023/05/20 08:56:48;;;;;;;19.40;14.75;;;;;;;;;;4980505;28;20565;-59
2023/05/20 08:59:14;;;;;;;14.63;11.88;;;;;;;;;;4978199;28;20148;-61
2023/05/20 09:01:43;;;;;;;17.05;12.60;;;;;;;;;;4979058;28;20144;-60
2023/05/20 09:04:09;;;;;;;15.20;13.32;;;;;;;;;;4978181;28;20041;-60
2023/05/20 09:06:44;;;;;;;14.32;12.82;;;;;;;;;;4978654;28;20492;-60
2023/05/20 09:09:09;;;;;;;;;;;;;;;;;;4978349;28;20402;-61
2023/05/20 09:11:34;;;;;;;13.77;11.77;;;;;;;;;;4980215;28;19924;-63
2023/05/20 09:14:00;;;;;;;15.98;13.20;;;;;;;;;;4980819;28;20343;-62
2023/05/20 09:16:25;;;;;;;15.00;12.20;;;;;;;;;;4983555;28;20069;-61
2023/05/20 09:18:54;;;;;;;14.80;12.98;;;;;;;;;;4980550;28;20172;-61
2023/05/20 09:21:24;;;;;;;15.85;13.10;;;;;;;;;;4980263;28;20117;-61
2023/05/20 09:23:52;;;;;;;16.42;13.55;;;;;;;;;;4980574;28;20424;-61
2023/05/20 09:26:17;;;;;;;15.48;13.85;;;;;;;;;;4982358;28;20039;-61
2023/05/20 09:28:43;;;;;;;14.38;12.90;;;;;;;;;;4980857;28;20084;-60
2023/05/20 09:31:08;;;;;;;16.35;13.50;;;;;;;;;;4978419;28;20056;-60
2023/05/20 09:33:35;;;;;;;17.60;14.20;;;;;;;;;;4981479;28;20037;-59
2023/05/20 09:36:06;;;;;;;16.10;13.95;;;;;;;;;;4975806;28;20494;-60
2023/05/20 09:38:36;;;;;;;16.15;13.80;;;;;;;;;;4985191;28;20066;-60
2023/05/20 09:41:12;;;;;;;15.40;13.57;;;;;;;;;;4976522;28;20699;-61
2023/05/20 09:43:41;;;;;;;14.73;13.10;;;;;;;;;;4986764;28;20105;-62
2023/05/20 09:46:07;;;;;;;17.02;14.95;;;;;;;;;;4985741;28;20186;-61
2023/05/20 09:48:35;;;;;;;23.08;17.25;;;;;;;;;;4986816;28;20042;-60
2023/05/20 09:51:03;;;;;;;15.00;13.38;;;;;;;;;;4983282;28;20044;-60
2023/05/20 09:53:28;;;;;;;19.52;13.85;;;;;;;;;;4984742;28;20025;-60
2023/05/20 09:55:54;;;;;;;18.15;15.75;;;;;;;;;;4985414;28;20052;-60
2023/05/20 09:58:21;;;;;;;17.92;13.93;;;;;;;;;;4984760;28;20066;-60
2023/05/20 10:00:46;;;;;;;16.10;13.10;;;;;;;;;;4986278;28;20960;-63
2023/05/20 10:03:12;;;;;;;14.40;12.90;;;;;;;;;;4999265;28;20664;-60
2023/05/20 10:05:44;;;;;;;15.75;12.23;;;;;;;;;;4985258;28;20034;-61
2023/05/20 10:08:17;;;;;;;16.13;13.45;;;;;;;;;;4984019;28;20138;-61
2023/05/20 10:11:02;;;;;;;13.30;11.55;;;;;;;;;;4987677;28;20129;-60
2023/05/20 10:13:46;;;;;;;12.02;10.80;;;;;;;;;;5000497;28;20093;-61
2023/05/20 10:16:34;;;;;;;15.85;14.27;;;;;;;;;;4985581;28;20558;-60
2023/05/20 10:19:00;;;;;;;14.88;13.38;;;;;;;;;;4979763;28;20137;-61
2023/05/20 10:21:28;;;;;;;14.35;12.38;;;;;;;;;;4984093;28;20481;-61
2023/05/20 10:23:53;;;;;;;14.80;13.20;;;;;;;;;;4986004;28;20387;-60
2023/05/20 10:26:20;;;;;;;14.75;12.95;;;;;;;;;;4984813;28;20121;-61
2023/05/20 10:28:46;;;;;;;15.07;13.45;;;;;;;;;;4987466;28;20050;-60
2023/05/20 10:31:18;;;;;;;14.57;12.93;;;;;;;;;;4983489;28;20042;-60
2023/05/20 10:33:44;;;;;;;13.70;11.88;;;;;;;;;;4986367;28;20109;-62
2023/05/20 10:36:20;;;;;;;15.40;13.00;;;;;;;;;;4986056;28;20523;-61
2023/05/20 10:38:56;;;;;;;14.27;12.45;;;;;;;;;;4987216;28;20042;-60
2023/05/20 10:41:23;;;;;;;16.58;14.82;;;;;;;;;;4984289;28;20125;-62
2023/05/20 10:43:58;;;;;;;15.90;14.43;;;;;;;;;;4982923;28;20045;-60
2023/05/20 10:46:23;;;;;;;14.40;12.93;;;;;;;;;;4981961;28;20193;-60
2023/05/20 10:48:49;;;;;;;17.65;15.55;;;;;;;;;;4981857;28;20042;-61
2023/05/20 10:51:15;;;;;;;16.92;15.18;;;;;;;;;;4969311;28;20501;-61
2023/05/20 10:53:44;;;;;;;17.08;15.35;;;;;;;;;;4980118;28;20417;-60
2023/05/20 10:56:17;;;;;;;15.73;13.95;;;;;;;;;;4981662;28;20065;-61
2023/05/20 10:58:43;;;;;;;16.98;13.82;;;;;;;;;;4980142;28;20069;-62
2023/05/20 11:01:09;;;;;;;14.90;13.27;;;;;;;;;;4980968;28;20141;-62
2023/05/20 11:03:35;;;;;;;14.52;13.00;;;;;;;;;;4981191;28;20034;-62
2023/05/20 11:06:00;;;;;;;16.50;12.20;;;;;;;;;;4979050;28;20495;-60
2023/05/20 11:08:32;;;;;;;16.15;12.65;;;;;;;;;;4981751;28;20485;-59
2023/05/20 11:10:57;;;;;;;13.73;12.43;;;;;;;;;;4980913;28;20742;-59
2023/05/20 11:13:24;;;;;;;14.52;13.07;;;;;;;;;;4984073;28;20027;-60
2023/05/20 11:15:49;;;;;;;14.07;12.68;;;;;;;;;;4981981;28;20409;-61
2023/05/20 11:18:15;;;;;;;13.27;12.07;;;;;;;;;;4981091;28;20092;-61
2023/05/20 11:20:41;;;;;;;13.02;11.75;;;;;;;;;;4981284;28;20047;-61
2023/05/20 11:23:11;;;;;;;12.85;11.70;;;;;;;;;;4980444;28;20042;-61
2023/05/20 11:25:36;;;;;;;14.50;13.15;;;;;;;;;;4980290;28;20099;-61
2023/05/20 11:28:02;;;;;;;13.68;11.30;;;;;;;;;;4981277;28;20034;-60
2023/05/20 11:30:29;;;;;;;11.50;10.45;;;;;;;;;;4982594;28;20034;-60
2023/05/20 11:33:01;;;;;;;13.20;11.90;;;;;;;;;;4982151;28;20071;-61
2023/05/20 11:35:29;;;;;;;13.07;11.85;;;;;;;;;;4980946;28;20243;-62
2023/05/20 11:38:05;;;;;;;13.27;11.75;;;;;;;;;;4981067;28;20341;-60
2023/05/20 11:40:31;;;;;;;12.60;11.40;;;;;;;;;;4980226;28;20065;-66
2023/05/20 11:42:57;;;;;;;13.13;11.98;;;;;;;;;;4981622;28;20177;-62
2023/05/20 11:45:23;;;;;;;12.68;10.63;;;;;;;;;;4979617;28;20160;-62
2023/05/20 11:48:01;;;;;;;11.10;10.05;;;;;;;;;;4979533;28;20264;-62
2023/05/20 11:50:27;;;;;;;11.77;10.30;;;;;;;;;;4996054;28;20029;-62
2023/05/20 11:52:59;;;;;;;12.82;11.60;;;;;;;;;;4983385;28;20043;-60
2023/05/20 11:55:25;;;;;;;13.73;12.45;;;;;;;;;;4982500;28;20145;-62
2023/05/20 11:57:51;;;;;;;12.70;11.55;;;;;;;;;;4979785;28;20042;-60
2023/05/20 12:00:16;;;;;;;13.52;10.98;;;;;;;;;;4977286;28;20457;-60
2023/05/20 12:02:42;;;;;;;15.38;12.20;;;;;;;;;;4978403;28;20040;-62
2023/05/20 12:05:07;;;;;;;12.60;11.48;;;;;;;;;;4981719;28;20222;-62
2023/05/20 12:07:33;;;;;;;12.82;11.68;;;;;;;;;;4978395;28;20047;-62
2023/05/20 12:09:58;;;;;;;11.98;10.88;;;;;;;;;;4979131;28;20081;-63
2023/05/20 12:12:24;;;;;;;10.35;9.38;;;;;;;;;;4978022;28;20049;-62
2023/05/20 12:14:50;;;;;;;9.55;8.77;;;;;;;;;;4979445;28;20044;-62
2023/05/20 12:17:15;;;;;;;9.63;8.73;;;;;;;;;;4978463;28;20852;-62
2023/05/20 12:19:41;;;;;;;11.45;10.45;;;;;;;;;;4979965;28;20671;-62
2023/05/20 12:22:06;;;;;;;12.93;10.13;;;;;;;;;;4979216;28;20119;-62
2023/05/20 12:24:31;;;;;;;10.35;9.50;;;;;;;;;;4979706;28;20491;-62
2023/05/20 12:26:57;;;;;;;10.50;9.50;;;;;;;;;;4979108;28;20428;-61
2023/05/20 12:29:22;;;;;;;10.40;9.50;;;;;;;;;;4975905;28;20128;-61
2023/05/20 12:31:48;;;;;;;10.15;9.15;;;;;;;;;;4978474;28;20051;-61
2023/05/20 12:34:13;;;;;;;11.10;9.93;;;;;;;;;;4978956;28;20053;-61
2023/05/20 12:36:38;;;;;;;10.98;9.95;;;;;;;;;;4977787;28;20096;-61
2023/05/20 12:39:04;;;;;;;11.27;10.20;;;;;;;;;;4979469;28;20042;-62
2023/05/20 12:41:30;;;;;;;10.32;9.43;;;;;;;;;;4979646;28;20467;-61
2023/05/20 12:43:55;;;;;;;10.75;9.85;;;;;;;;;;4983220;28;20026;-62
2023/05/20 12:46:21;;;;;;;11.18;10.27;;;;;;;;;;4979529;28;21046;-61
2023/05/20 12:48:46;;;;;;;10.05;9.25;;;;;;;;;;4979273;28;20248;-61
2023/05/20 12:51:12;;;;;;;9.55;8.85;;;;;;;;;;4977778;28;20260;-62
2023/05/20 12:53:37;;;;;;;9.80;9.10;;;;;;;;;;4978903;28;20042;-60
2023/05/20 12:56:03;;;;;;;9.25;8.43;;;;;;;;;;4978233;28;20605;-60
2023/05/20 12:58:28;;;;;;;9.73;8.85;;;;;;;;;;4978482;28;20437;-59
2023/05/20 13:00:54;;;;;;;10.43;9.52;;;;;;;;;;4980114;28;20033;-59
2023/05/20 13:03:19;;;;;;;8.35;7.65;;;;;;;;;;4981380;28;20326;-60
2023/05/20 13:05:45;;;;;;;9.68;8.85;;;;;;;;;;4977266;28;20042;-60
2023/05/20 13:08:11;;;;;;;9.35;8.52;;;;;;;;;;4979908;28;20560;-61
2023/05/20 13:10:37;;;;;;;8.15;7.45;;;;;;;;;;4977038;28;20053;-59
2023/05/20 13:13:02;;;;;;;10.07;8.45;;;;;;;;;;4982852;28;20490;-60
2023/05/20 13:15:28;;;;;;;9.85;8.85;;;;;;;;;;4977842;28;20465;-61
2023/05/20 13:17:53;;;;;;;9.18;8.38;;;;;;;;;;4979615;28;21137;-60
2023/05/20 13:20:18;;;;;;;8.60;7.68;;;;;;;;;;4978360;28;20046;-60
2023/05/20 13:22:44;;;;;;;8.60;7.80;;;;;;;;;;4980166;28;20058;-60
2023/05/20 13:25:09;;;;;;;10.02;9.05;;;;;;;;;;4976920;28;20140;-60
2023/05/20 13:27:35;;;;;;;9.38;8.55;;;;;;;;;;4977868;28;20148;-61
2023/05/20 13:30:00;;;;;;;9.15;8.25;;;;;;;;;;4981391;28;20374;-60
2023/05/20 13:32:26;;;;;;;9.82;8.73;;;;;;;;;;4980380;28;20042;-60
2023/05/20 13:34:52;;;;;;;8.32;7.63;;;;;;;;;;4979156;28;20037;-60
2023/05/20 13:37:17;;;;;;;8.18;7.53;;;;;;;;;;4978606;28;20133;-60
2023/05/20 13:39:42;;;;;;;10.40;9.43;;;;;;;;;;4978903;28;20053;-61
2023/05/20 13:42:08;;;;;;;8.98;8.07;;;;;;;;;;4979289;28;20583;-62
2023/05/20 13:44:33;;;;;;;9.73;8.82;;;;;;;;;;4978332;28;20072;-61
2023/05/20 13:46:59;;;;;;;8.10;7.45;;;;;;;;;;4978398;28;20038;-60
2023/05/20 13:49:24;;;;;;;7.97;7.38;;;;;;;;;;4980656;28;20088;-60
2023/05/20 13:51:50;;;;;;;10.07;9.27;;;;;;;;;;4979072;28;20046;-59
2023/05/20 13:54:15;;;;;;;10.15;9.15;;;;;;;;;;4979694;28;20034;-61
2023/05/20 13:56:41;;;;;;;9.32;8.32;;;;;;;;;;4975566;28;20145;-61
2023/05/20 13:59:06;;;;;;;8.75;8.05;;;;;;;;;;4979443;28;20042;-65
2023/05/20 14:01:32;;;;;;;9.38;8.55;;;;;;;;;;4978732;28;20452;-65
2023/05/20 14:03:58;;;;;;;9.65;8.85;;;;;;;;;;4979586;28;20035;-63
2023/05/20 14:06:23;;;;;;;10.25;9.27;;;;;;;;;;4977864;28;20509;-64
2023/05/20 14:08:49;;;;;;;9.25;8.45;;;;;;;;;;4980639;28;20043;-63
2023/05/20 14:11:14;;;;;;;9.85;8.90;;;;;;;;;;4979375;28;20040;-64
2023/05/20 14:13:40;;;;;;;11.13;8.20;;;;;;;;;;4976897;28;20134;-64
2023/05/20 14:16:05;;;;;;;9.32;8.35;;;;;;;;;;4977202;28;20493;-64
2023/05/20 14:18:31;;;;;;;9.00;8.27;;;;;;;;;;4979384;28;20038;-64
2023/05/20 14:20:56;;;;;;;9.30;8.40;;;;;;;;;;4983363;28;20125;-65